sensor_id;sensor_type;location;lat;lon;timestamp;temperature;humidity
74376;HTU21D;62812;55.188;61.302;2022-12-10T00:00:34;-6.52;49.33
74376;HTU21D;62812;55.188;61.302;2022-12-10T00:03:01;-6.51;48.76
74376;HTU21D;62812;55.188;61.302;2022-12-10T00:05:27;-6.51;49.02
74376;HTU21D;62812;55.188;61.302;2022-12-10T00:07:53;-6.51;49.08
74376;HTU21D;62812;55.188;61.302;2022-12-10T00:10:20;-6.53;49.50
74376;HTU21D;62812;55.188;61.302;2022-12-10T00:12:47;-6.52;49.20
74376;HTU21D;62812;55.188;61.302;2022-12-10T00:15:14;-6.53;49.52
74376;HTU21D;62812;55.188;61.302;2022-12-10T00:17:40;-6.51;49.14
74376;HTU21D;62812;55.188;61.302;2022-12-10T00:20:08;-6.55;48.66
74376;HTU21D;62812;55.188;61.302;2022-12-10T00:22:34;-6.53;49.37
74376;HTU21D;62812;55.188;61.302;2022-12-10T00:25:01;-6.47;49.14
74376;HTU21D;62812;55.188;61.302;2022-12-10T00:27:28;-6.45;48.98
74376;HTU21D;62812;55.188;61.302;2022-12-10T00:29:55;-6.41;48.85
74376;HTU21D;62812;55.188;61.302;2022-12-10T00:32:22;-6.44;49.40
74376;HTU21D;62812;55.188;61.302;2022-12-10T00:34:48;-6.44;49.02
74376;HTU21D;62812;55.188;61.302;2022-12-10T00:37:15;-6.44;49.18
74376;HTU21D;62812;55.188;61.302;2022-12-10T00:39:41;-6.43;48.92
74376;HTU21D;62812;55.188;61.302;2022-12-10T00:42:07;-6.44;49.14
74376;HTU21D;62812;55.188;61.302;2022-12-10T00:44:34;-6.41;49.25
74376;HTU21D;62812;55.188;61.302;2022-12-10T00:47:02;-6.37;49.24
74376;HTU21D;62812;55.188;61.302;2022-12-10T00:49:28;-6.37;49.76
74376;HTU21D;62812;55.188;61.302;2022-12-10T00:51:54;-6.39;48.73
74376;HTU21D;62812;55.188;61.302;2022-12-10T00:54:21;-6.44;49.12
74376;HTU21D;62812;55.188;61.302;2022-12-10T00:56:47;-6.48;49.37
74376;HTU21D;62812;55.188;61.302;2022-12-10T00:59:14;-6.47;49.31
74376;HTU21D;62812;55.188;61.302;2022-12-10T01:01:42;-6.46;49.60
74376;HTU21D;62812;55.188;61.302;2022-12-10T01:04:13;-6.53;49.87
74376;HTU21D;62812;55.188;61.302;2022-12-10T01:06:42;-6.58;49.77
74376;HTU21D;62812;55.188;61.302;2022-12-10T01:09:10;-6.62;49.62
74376;HTU21D;62812;55.188;61.302;2022-12-10T01:11:39;-6.63;49.82
74376;HTU21D;62812;55.188;61.302;2022-12-10T01:14:07;-6.63;49.75
74376;HTU21D;62812;55.188;61.302;2022-12-10T01:16:34;-6.64;49.90
74376;HTU21D;62812;55.188;61.302;2022-12-10T01:19:00;-6.62;50.72
74376;HTU21D;62812;55.188;61.302;2022-12-10T01:21:29;-6.63;49.68
74376;HTU21D;62812;55.188;61.302;2022-12-10T01:23:56;-6.56;50.79
74376;HTU21D;62812;55.188;61.302;2022-12-10T01:26:25;-6.38;51.32
74376;HTU21D;62812;55.188;61.302;2022-12-10T01:28:52;-6.21;50.69
74376;HTU21D;62812;55.188;61.302;2022-12-10T01:31:20;-6.22;49.37
74376;HTU21D;62812;55.188;61.302;2022-12-10T01:33:47;-6.28;49.34
74376;HTU21D;62812;55.188;61.302;2022-12-10T01:36:16;-6.33;49.63
74376;HTU21D;62812;55.188;61.302;2022-12-10T01:38:45;-6.29;50.11
74376;HTU21D;62812;55.188;61.302;2022-12-10T01:41:14;-6.23;50.18
74376;HTU21D;62812;55.188;61.302;2022-12-10T01:43:54;-6.20;49.72
74376;HTU21D;62812;55.188;61.302;2022-12-10T01:46:22;-6.26;49.52
74376;HTU21D;62812;55.188;61.302;2022-12-10T01:48:50;-6.35;49.19
74376;HTU21D;62812;55.188;61.302;2022-12-10T01:51:16;-6.44;49.57
74376;HTU21D;62812;55.188;61.302;2022-12-10T01:53:45;-6.50;50.31
74376;HTU21D;62812;55.188;61.302;2022-12-10T01:56:12;-6.50;49.44
74376;HTU21D;62812;55.188;61.302;2022-12-10T01:58:41;-6.51;50.45
74376;HTU21D;62812;55.188;61.302;2022-12-10T02:01:11;-6.55;49.54
74376;HTU21D;62812;55.188;61.302;2022-12-10T02:03:47;-6.58;51.04
74376;HTU21D;62812;55.188;61.302;2022-12-10T02:06:28;-6.63;50.25
74376;HTU21D;62812;55.188;61.302;2022-12-10T02:09:05;-6.62;50.70
74376;HTU21D;62812;55.188;61.302;2022-12-10T02:11:39;-6.62;50.72
74376;HTU21D;62812;55.188;61.302;2022-12-10T02:14:10;-6.63;50.86
74376;HTU21D;62812;55.188;61.302;2022-12-10T02:16:40;-6.62;50.89
74376;HTU21D;62812;55.188;61.302;2022-12-10T02:19:15;-6.63;50.52
74376;HTU21D;62812;55.188;61.302;2022-12-10T02:21:46;-6.61;50.49
74376;HTU21D;62812;55.188;61.302;2022-12-10T02:24:20;-6.62;50.34
74376;HTU21D;62812;55.188;61.302;2022-12-10T02:26:52;-6.61;50.73
74376;HTU21D;62812;55.188;61.302;2022-12-10T02:29:25;-6.62;50.80
74376;HTU21D;62812;55.188;61.302;2022-12-10T02:31:56;-6.66;50.70
74376;HTU21D;62812;55.188;61.302;2022-12-10T02:34:28;-6.70;50.98
74376;HTU21D;62812;55.188;61.302;2022-12-10T02:36:59;-6.66;51.48
74376;HTU21D;62812;55.188;61.302;2022-12-10T02:39:31;-6.62;51.04
74376;HTU21D;62812;55.188;61.302;2022-12-10T02:42:01;-6.63;50.94
74376;HTU21D;62812;55.188;61.302;2022-12-10T02:44:31;-6.63;50.77
74376;HTU21D;62812;55.188;61.302;2022-12-10T02:46:59;-6.60;51.47
74376;HTU21D;62812;55.188;61.302;2022-12-10T02:49:27;-6.61;51.33
74376;HTU21D;62812;55.188;61.302;2022-12-10T02:51:55;-6.57;51.75
74376;HTU21D;62812;55.188;61.302;2022-12-10T02:54:39;-6.56;51.32
74376;HTU21D;62812;55.188;61.302;2022-12-10T02:57:15;-6.53;52.11
74376;HTU21D;62812;55.188;61.302;2022-12-10T03:00:01;-6.50;51.88
74376;HTU21D;62812;55.188;61.302;2022-12-10T03:02:34;-6.47;51.74
74376;HTU21D;62812;55.188;61.302;2022-12-10T03:05:07;-6.43;52.11
74376;HTU21D;62812;55.188;61.302;2022-12-10T03:07:42;-6.35;52.11
74376;HTU21D;62812;55.188;61.302;2022-12-10T03:10:16;-6.31;52.09
74376;HTU21D;62812;55.188;61.302;2022-12-10T03:12:47;-6.30;52.05
74376;HTU21D;62812;55.188;61.302;2022-12-10T03:15:16;-6.29;51.95
74376;HTU21D;62812;55.188;61.302;2022-12-10T03:17:45;-6.27;52.28
74376;HTU21D;62812;55.188;61.302;2022-12-10T03:20:13;-6.24;52.62
74376;HTU21D;62812;55.188;61.302;2022-12-10T03:22:43;-6.20;52.32
74376;HTU21D;62812;55.188;61.302;2022-12-10T03:25:10;-6.19;52.14
74376;HTU21D;62812;55.188;61.302;2022-12-10T03:27:39;-6.15;52.20
74376;HTU21D;62812;55.188;61.302;2022-12-10T03:30:08;-6.15;52.68
74376;HTU21D;62812;55.188;61.302;2022-12-10T03:32:38;-6.16;52.32
74376;HTU21D;62812;55.188;61.302;2022-12-10T03:35:06;-6.18;52.48
74376;HTU21D;62812;55.188;61.302;2022-12-10T03:37:34;-6.19;52.16
74376;HTU21D;62812;55.188;61.302;2022-12-10T03:40:00;-6.21;51.84
74376;HTU21D;62812;55.188;61.302;2022-12-10T03:42:27;-6.22;52.92
74376;HTU21D;62812;55.188;61.302;2022-12-10T03:44:54;-6.18;52.30
74376;HTU21D;62812;55.188;61.302;2022-12-10T03:47:20;-6.16;52.81
74376;HTU21D;62812;55.188;61.302;2022-12-10T03:49:48;-6.11;51.82
74376;HTU21D;62812;55.188;61.302;2022-12-10T03:52:15;-6.02;51.93
74376;HTU21D;62812;55.188;61.302;2022-12-10T03:54:42;-5.94;51.34
74376;HTU21D;62812;55.188;61.302;2022-12-10T03:57:08;-5.92;50.98
74376;HTU21D;62812;55.188;61.302;2022-12-10T03:59:35;-5.90;49.50
74376;HTU21D;62812;55.188;61.302;2022-12-10T04:02:01;-5.89;48.95
74376;HTU21D;62812;55.188;61.302;2022-12-10T04:04:28;-5.85;49.15
74376;HTU21D;62812;55.188;61.302;2022-12-10T04:06:56;-5.87;49.63
74376;HTU21D;62812;55.188;61.302;2022-12-10T04:09:23;-5.86;48.06
74376;HTU21D;62812;55.188;61.302;2022-12-10T04:11:49;-5.84;48.79
74376;HTU21D;62812;55.188;61.302;2022-12-10T04:14:16;-5.86;49.07
74376;HTU21D;62812;55.188;61.302;2022-12-10T04:17:01;-5.86;48.83
74376;HTU21D;62812;55.188;61.302;2022-12-10T04:19:28;-5.87;48.88
74376;HTU21D;62812;55.188;61.302;2022-12-10T04:21:58;-5.92;48.80
74376;HTU21D;62812;55.188;61.302;2022-12-10T04:24:43;-5.86;49.34
74376;HTU21D;62812;55.188;61.302;2022-12-10T04:27:29;-5.83;48.38
74376;HTU21D;62812;55.188;61.302;2022-12-10T04:29:58;-5.85;47.79
74376;HTU21D;62812;55.188;61.302;2022-12-10T04:32:26;-5.81;47.79
74376;HTU21D;62812;55.188;61.302;2022-12-10T04:34:53;-5.76;48.86
74376;HTU21D;62812;55.188;61.302;2022-12-10T04:37:21;-5.77;48.28
74376;HTU21D;62812;55.188;61.302;2022-12-10T04:39:49;-5.73;48.31
74376;HTU21D;62812;55.188;61.302;2022-12-10T04:42:16;-5.73;48.57
74376;HTU21D;62812;55.188;61.302;2022-12-10T04:44:42;-5.75;48.09
74376;HTU21D;62812;55.188;61.302;2022-12-10T04:47:10;-5.73;48.57
74376;HTU21D;62812;55.188;61.302;2022-12-10T04:49:37;-5.72;48.41
74376;HTU21D;62812;55.188;61.302;2022-12-10T04:52:08;-5.70;47.56
74376;HTU21D;62812;55.188;61.302;2022-12-10T04:54:35;-5.70;48.95
74376;HTU21D;62812;55.188;61.302;2022-12-10T04:57:07;-5.67;48.14
74376;HTU21D;62812;55.188;61.302;2022-12-10T04:59:35;-5.64;47.47
74376;HTU21D;62812;55.188;61.302;2022-12-10T05:02:02;-5.63;47.73
74376;HTU21D;62812;55.188;61.302;2022-12-10T05:04:29;-5.61;48.31
74376;HTU21D;62812;55.188;61.302;2022-12-10T05:06:57;-5.57;48.08
74376;HTU21D;62812;55.188;61.302;2022-12-10T05:09:24;-5.46;49.00
74376;HTU21D;62812;55.188;61.302;2022-12-10T05:11:56;-5.30;48.44
74376;HTU21D;62812;55.188;61.302;2022-12-10T05:14:28;-5.26;47.87
74376;HTU21D;62812;55.188;61.302;2022-12-10T05:16:54;-5.18;46.44
74376;HTU21D;62812;55.188;61.302;2022-12-10T05:19:22;-5.15;47.12
74376;HTU21D;62812;55.188;61.302;2022-12-10T05:21:52;-5.15;45.51
74376;HTU21D;62812;55.188;61.302;2022-12-10T05:24:37;-5.12;45.80
74376;HTU21D;62812;55.188;61.302;2022-12-10T05:27:05;-5.09;45.81
74376;HTU21D;62812;55.188;61.302;2022-12-10T05:29:32;-5.03;46.15
74376;HTU21D;62812;55.188;61.302;2022-12-10T05:32:00;-4.97;44.48
74376;HTU21D;62812;55.188;61.302;2022-12-10T05:34:29;-4.95;45.48
74376;HTU21D;62812;55.188;61.302;2022-12-10T05:36:58;-4.89;45.16
74376;HTU21D;62812;55.188;61.302;2022-12-10T05:39:35;-4.81;45.23
74376;HTU21D;62812;55.188;61.302;2022-12-10T05:42:04;-4.81;45.37
74376;HTU21D;62812;55.188;61.302;2022-12-10T05:44:32;-4.80;45.09
74376;HTU21D;62812;55.188;61.302;2022-12-10T05:46:59;-4.76;45.22
74376;HTU21D;62812;55.188;61.302;2022-12-10T05:49:25;-4.73;44.25
74376;HTU21D;62812;55.188;61.302;2022-12-10T05:51:54;-4.75;44.68
74376;HTU21D;62812;55.188;61.302;2022-12-10T05:54:22;-4.72;44.18
74376;HTU21D;62812;55.188;61.302;2022-12-10T05:56:48;-4.70;45.03
74376;HTU21D;62812;55.188;61.302;2022-12-10T05:59:18;-4.67;44.19
74376;HTU21D;62812;55.188;61.302;2022-12-10T06:01:47;-4.69;44.67
74376;HTU21D;62812;55.188;61.302;2022-12-10T06:04:17;-4.63;45.39
74376;HTU21D;62812;55.188;61.302;2022-12-10T06:06:47;-4.52;46.20
74376;HTU21D;62812;55.188;61.302;2022-12-10T06:09:16;-4.51;45.93
74376;HTU21D;62812;55.188;61.302;2022-12-10T06:11:43;-4.38;47.46
74376;HTU21D;62812;55.188;61.302;2022-12-10T06:14:10;-4.41;44.16
74376;HTU21D;62812;55.188;61.302;2022-12-10T06:16:39;-4.48;44.70
74376;HTU21D;62812;55.188;61.302;2022-12-10T06:19:06;-4.46;44.76
74376;HTU21D;62812;55.188;61.302;2022-12-10T06:21:33;-4.48;45.06
74376;HTU21D;62812;55.188;61.302;2022-12-10T06:24:00;-4.46;45.71
74376;HTU21D;62812;55.188;61.302;2022-12-10T06:26:26;-4.48;45.88
74376;HTU21D;62812;55.188;61.302;2022-12-10T06:28:53;-4.50;45.79
74376;HTU21D;62812;55.188;61.302;2022-12-10T06:31:20;-4.50;46.51
74376;HTU21D;62812;55.188;61.302;2022-12-10T06:33:49;-4.50;46.23
74376;HTU21D;62812;55.188;61.302;2022-12-10T06:36:17;-4.46;46.35
74376;HTU21D;62812;55.188;61.302;2022-12-10T06:38:43;-4.48;45.65
74376;HTU21D;62812;55.188;61.302;2022-12-10T06:41:12;-4.48;46.38
74376;HTU21D;62812;55.188;61.302;2022-12-10T06:43:40;-4.49;46.46
74376;HTU21D;62812;55.188;61.302;2022-12-10T06:46:07;-4.42;48.53
74376;HTU21D;62812;55.188;61.302;2022-12-10T06:48:34;-4.36;45.79
74376;HTU21D;62812;55.188;61.302;2022-12-10T06:51:03;-4.34;45.90
74376;HTU21D;62812;55.188;61.302;2022-12-10T06:53:30;-4.31;45.60
74376;HTU21D;62812;55.188;61.302;2022-12-10T06:55:58;-4.27;45.57
74376;HTU21D;62812;55.188;61.302;2022-12-10T06:58:27;-4.25;46.12
74376;HTU21D;62812;55.188;61.302;2022-12-10T07:00:54;-4.21;46.63
74376;HTU21D;62812;55.188;61.302;2022-12-10T07:03:28;-4.20;45.49
74376;HTU21D;62812;55.188;61.302;2022-12-10T07:05:57;-4.21;45.32
74376;HTU21D;62812;55.188;61.302;2022-12-10T07:08:25;-4.13;46.25
74376;HTU21D;62812;55.188;61.302;2022-12-10T07:10:51;-4.06;46.02
74376;HTU21D;62812;55.188;61.302;2022-12-10T07:13:18;-4.04;45.22
74376;HTU21D;62812;55.188;61.302;2022-12-10T07:15:44;-3.97;46.31
74376;HTU21D;62812;55.188;61.302;2022-12-10T07:18:10;-3.80;48.12
74376;HTU21D;62812;55.188;61.302;2022-12-10T07:20:37;-3.69;44.97
74376;HTU21D;62812;55.188;61.302;2022-12-10T07:23:04;-3.57;46.62
74376;HTU21D;62812;55.188;61.302;2022-12-10T07:25:32;-3.43;45.87
74376;HTU21D;62812;55.188;61.302;2022-12-10T07:27:59;-3.30;43.93
74376;HTU21D;62812;55.188;61.302;2022-12-10T07:30:26;-3.30;43.35
74376;HTU21D;62812;55.188;61.302;2022-12-10T07:32:54;-3.33;45.12
74376;HTU21D;62812;55.188;61.302;2022-12-10T07:35:20;-3.38;44.57
74376;HTU21D;62812;55.188;61.302;2022-12-10T07:37:47;-3.37;43.64
74376;HTU21D;62812;55.188;61.302;2022-12-10T07:40:14;-3.34;44.95
74376;HTU21D;62812;55.188;61.302;2022-12-10T07:42:42;-3.36;44.48
74376;HTU21D;62812;55.188;61.302;2022-12-10T07:45:10;-3.31;44.09
74376;HTU21D;62812;55.188;61.302;2022-12-10T07:47:37;-3.40;43.13
74376;HTU21D;62812;55.188;61.302;2022-12-10T07:50:06;-3.47;42.81
74376;HTU21D;62812;55.188;61.302;2022-12-10T07:52:34;-3.47;45.23
74376;HTU21D;62812;55.188;61.302;2022-12-10T07:55:01;-3.35;46.82
74376;HTU21D;62812;55.188;61.302;2022-12-10T07:57:28;-3.11;46.35
74376;HTU21D;62812;55.188;61.302;2022-12-10T07:59:59;-3.02;43.21
74376;HTU21D;62812;55.188;61.302;2022-12-10T08:02:25;-3.05;42.71
74376;HTU21D;62812;55.188;61.302;2022-12-10T08:04:52;-3.07;42.43
74376;HTU21D;62812;55.188;61.302;2022-12-10T08:07:18;-3.10;43.07
74376;HTU21D;62812;55.188;61.302;2022-12-10T08:09:45;-3.01;45.49
74376;HTU21D;62812;55.188;61.302;2022-12-10T08:12:11;-2.97;42.11
74376;HTU21D;62812;55.188;61.302;2022-12-10T08:14:38;-3.00;41.78
74376;HTU21D;62812;55.188;61.302;2022-12-10T08:17:08;-3.04;42.55
74376;HTU21D;62812;55.188;61.302;2022-12-10T08:19:40;-3.13;42.44
74376;HTU21D;62812;55.188;61.302;2022-12-10T08:22:13;-3.18;42.48
74376;HTU21D;62812;55.188;61.302;2022-12-10T08:24:48;-3.12;44.22
74376;HTU21D;62812;55.188;61.302;2022-12-10T08:27:20;-3.09;45.06
74376;HTU21D;62812;55.188;61.302;2022-12-10T08:29:49;-3.09;42.07
74376;HTU21D;62812;55.188;61.302;2022-12-10T08:32:19;-3.09;41.89
74376;HTU21D;62812;55.188;61.302;2022-12-10T08:34:46;-3.07;43.11
74376;HTU21D;62812;55.188;61.302;2022-12-10T08:37:13;-3.06;41.78
74376;HTU21D;62812;55.188;61.302;2022-12-10T08:39:42;-3.07;41.83
74376;HTU21D;62812;55.188;61.302;2022-12-10T08:42:09;-3.02;42.69
74376;HTU21D;62812;55.188;61.302;2022-12-10T08:44:35;-2.95;42.47
74376;HTU21D;62812;55.188;61.302;2022-12-10T08:47:02;-2.87;41.90
74376;HTU21D;62812;55.188;61.302;2022-12-10T08:49:30;-2.77;42.19
74376;HTU21D;62812;55.188;61.302;2022-12-10T08:52:00;-2.76;40.46
74376;HTU21D;62812;55.188;61.302;2022-12-10T08:54:29;-2.68;47.02
74376;HTU21D;62812;55.188;61.302;2022-12-10T08:56:58;-2.54;43.26
74376;HTU21D;62812;55.188;61.302;2022-12-10T08:59:27;-2.54;40.87
74376;HTU21D;62812;55.188;61.302;2022-12-10T09:01:56;-2.56;42.48
74376;HTU21D;62812;55.188;61.302;2022-12-10T09:04:23;-2.44;41.10
74376;HTU21D;62812;55.188;61.302;2022-12-10T09:06:51;-2.51;40.53
74376;HTU21D;62812;55.188;61.302;2022-12-10T09:09:19;-2.57;40.43
74376;HTU21D;62812;55.188;61.302;2022-12-10T09:11:45;-2.51;42.37
74376;HTU21D;62812;55.188;61.302;2022-12-10T09:14:12;-2.45;41.45
74376;HTU21D;62812;55.188;61.302;2022-12-10T09:16:39;-2.45;40.62
74376;HTU21D;62812;55.188;61.302;2022-12-10T09:19:06;-2.52;39.97
74376;HTU21D;62812;55.188;61.302;2022-12-10T09:21:32;-2.54;41.62
74376;HTU21D;62812;55.188;61.302;2022-12-10T09:24:08;-2.46;42.42
74376;HTU21D;62812;55.188;61.302;2022-12-10T09:26:36;-2.51;41.65
74376;HTU21D;62812;55.188;61.302;2022-12-10T09:29:04;-2.53;40.92
74376;HTU21D;62812;55.188;61.302;2022-12-10T09:31:30;-2.59;42.85
74376;HTU21D;62812;55.188;61.302;2022-12-10T09:33:58;-2.52;43.44
74376;HTU21D;62812;55.188;61.302;2022-12-10T09:36:26;-2.52;40.94
74376;HTU21D;62812;55.188;61.302;2022-12-10T09:38:53;-2.56;40.97
74376;HTU21D;62812;55.188;61.302;2022-12-10T09:41:45;-2.59;41.26
74376;HTU21D;62812;55.188;61.302;2022-12-10T09:44:27;-2.60;40.94
74376;HTU21D;62812;55.188;61.302;2022-12-10T09:46:59;-2.59;43.49
74376;HTU21D;62812;55.188;61.302;2022-12-10T09:49:39;-2.66;41.64
74376;HTU21D;62812;55.188;61.302;2022-12-10T09:52:16;-2.69;42.98
74376;HTU21D;62812;55.188;61.302;2022-12-10T09:54:47;-2.77;41.64
74376;HTU21D;62812;55.188;61.302;2022-12-10T09:57:21;-2.83;43.31
74376;HTU21D;62812;55.188;61.302;2022-12-10T09:59:51;-2.78;43.21
74376;HTU21D;62812;55.188;61.302;2022-12-10T10:02:28;-2.75;42.84
74376;HTU21D;62812;55.188;61.302;2022-12-10T10:05:14;-2.86;42.51
74376;HTU21D;62812;55.188;61.302;2022-12-10T10:07:55;-2.93;42.89
74376;HTU21D;62812;55.188;61.302;2022-12-10T10:10:27;-2.95;43.89
74376;HTU21D;62812;55.188;61.302;2022-12-10T10:13:16;-2.93;44.93
74376;HTU21D;62812;55.188;61.302;2022-12-10T10:15:47;-2.98;43.99
74376;HTU21D;62812;55.188;61.302;2022-12-10T10:18:21;-2.96;45.16
74376;HTU21D;62812;55.188;61.302;2022-12-10T10:20:53;-2.96;44.51
74376;HTU21D;62812;55.188;61.302;2022-12-10T10:23:21;-3.04;44.76
74376;HTU21D;62812;55.188;61.302;2022-12-10T10:25:48;-3.11;44.86
74376;HTU21D;62812;55.188;61.302;2022-12-10T10:28:20;-3.21;43.99
74376;HTU21D;62812;55.188;61.302;2022-12-10T10:30:47;-3.20;45.30
74376;HTU21D;62812;55.188;61.302;2022-12-10T10:33:15;-3.20;47.64
74376;HTU21D;62812;55.188;61.302;2022-12-10T10:35:44;-3.19;45.66
74376;HTU21D;62812;55.188;61.302;2022-12-10T10:38:16;-3.18;45.47
74376;HTU21D;62812;55.188;61.302;2022-12-10T10:40:48;-3.13;45.98
74376;HTU21D;62812;55.188;61.302;2022-12-10T10:43:20;-3.18;45.03
74376;HTU21D;62812;55.188;61.302;2022-12-10T10:45:52;-3.22;46.12
74376;HTU21D;62812;55.188;61.302;2022-12-10T10:48:21;-3.20;47.14
74376;HTU21D;62812;55.188;61.302;2022-12-10T10:50:49;-3.21;47.49
74376;HTU21D;62812;55.188;61.302;2022-12-10T10:53:35;-3.20;46.96
74376;HTU21D;62812;55.188;61.302;2022-12-10T10:56:10;-3.23;46.90
74376;HTU21D;62812;55.188;61.302;2022-12-10T10:59:00;-3.30;47.11
74376;HTU21D;62812;55.188;61.302;2022-12-10T11:01:43;-3.37;47.12
74376;HTU21D;62812;55.188;61.302;2022-12-10T11:04:13;-3.41;47.95
74376;HTU21D;62812;55.188;61.302;2022-12-10T11:06:42;-3.39;47.09
74376;HTU21D;62812;55.188;61.302;2022-12-10T11:09:17;-3.40;47.15
74376;HTU21D;62812;55.188;61.302;2022-12-10T11:11:49;-3.47;47.52
74376;HTU21D;62812;55.188;61.302;2022-12-10T11:14:24;-3.54;47.22
74376;HTU21D;62812;55.188;61.302;2022-12-10T11:16:51;-3.58;47.13
74376;HTU21D;62812;55.188;61.302;2022-12-10T11:19:25;-3.58;47.25
74376;HTU21D;62812;55.188;61.302;2022-12-10T11:21:52;-3.63;47.79
74376;HTU21D;62812;55.188;61.302;2022-12-10T11:24:19;-3.54;46.71
74376;HTU21D;62812;55.188;61.302;2022-12-10T11:27:02;-3.57;46.53
74376;HTU21D;62812;55.188;61.302;2022-12-10T11:29:46;-3.65;46.28
74376;HTU21D;62812;55.188;61.302;2022-12-10T11:32:34;-3.66;47.34
74376;HTU21D;62812;55.188;61.302;2022-12-10T11:35:10;-3.70;47.17
74376;HTU21D;62812;55.188;61.302;2022-12-10T11:37:42;-3.77;47.25
74376;HTU21D;62812;55.188;61.302;2022-12-10T11:40:28;-3.80;47.67
74376;HTU21D;62812;55.188;61.302;2022-12-10T11:43:07;-3.83;47.78
74376;HTU21D;62812;55.188;61.302;2022-12-10T11:45:46;-3.89;47.71
74376;HTU21D;62812;55.188;61.302;2022-12-10T11:48:32;-3.85;48.68
74376;HTU21D;62812;55.188;61.302;2022-12-10T11:51:05;-3.85;47.85
74376;HTU21D;62812;55.188;61.302;2022-12-10T11:53:51;-3.89;47.99
74376;HTU21D;62812;55.188;61.302;2022-12-10T11:56:24;-3.89;47.95
74376;HTU21D;62812;55.188;61.302;2022-12-10T11:59:03;-3.90;48.54
74376;HTU21D;62812;55.188;61.302;2022-12-10T12:01:47;-3.92;48.06
74376;HTU21D;62812;55.188;61.302;2022-12-10T12:04:27;-3.94;47.57
74376;HTU21D;62812;55.188;61.302;2022-12-10T12:07:17;-3.95;47.54
74376;HTU21D;62812;55.188;61.302;2022-12-10T12:10:50;-4.00;48.30
74376;HTU21D;62812;55.188;61.302;2022-12-10T12:13:35;-3.98;47.89
74376;HTU21D;62812;55.188;61.302;2022-12-10T12:16:08;-3.99;48.00
74376;HTU21D;62812;55.188;61.302;2022-12-10T12:18:42;-4.05;47.65
74376;HTU21D;62812;55.188;61.302;2022-12-10T12:21:13;-4.00;47.81
74376;HTU21D;62812;55.188;61.302;2022-12-10T12:23:49;-4.02;47.53
74376;HTU21D;62812;55.188;61.302;2022-12-10T12:26:20;-4.04;47.15
74376;HTU21D;62812;55.188;61.302;2022-12-10T12:28:52;-4.06;47.92
74376;HTU21D;62812;55.188;61.302;2022-12-10T12:31:22;-4.07;48.02
74376;HTU21D;62812;55.188;61.302;2022-12-10T12:33:56;-4.06;49.79
74376;HTU21D;62812;55.188;61.302;2022-12-10T12:36:29;-3.97;47.73
74376;HTU21D;62812;55.188;61.302;2022-12-10T12:39:02;-4.00;48.64
74376;HTU21D;62812;55.188;61.302;2022-12-10T12:41:39;-4.05;47.58
74376;HTU21D;62812;55.188;61.302;2022-12-10T12:44:12;-4.05;47.37
74376;HTU21D;62812;55.188;61.302;2022-12-10T12:46:43;-4.08;47.47
74376;HTU21D;62812;55.188;61.302;2022-12-10T12:49:16;-3.97;48.35
74376;HTU21D;62812;55.188;61.302;2022-12-10T12:51:49;-3.92;47.47
74376;HTU21D;62812;55.188;61.302;2022-12-10T12:54:18;-3.92;47.47
74376;HTU21D;62812;55.188;61.302;2022-12-10T12:56:57;-3.91;47.05
74376;HTU21D;62812;55.188;61.302;2022-12-10T12:59:40;-3.87;47.47
74376;HTU21D;62812;55.188;61.302;2022-12-10T13:02:21;-3.92;47.61
74376;HTU21D;62812;55.188;61.302;2022-12-10T13:04:50;-3.91;47.33
74376;HTU21D;62812;55.188;61.302;2022-12-10T13:07:32;-3.86;46.62
74376;HTU21D;62812;55.188;61.302;2022-12-10T13:10:22;-3.80;46.14
74376;HTU21D;62812;55.188;61.302;2022-12-10T13:12:50;-3.78;45.64
74376;HTU21D;62812;55.188;61.302;2022-12-10T13:15:20;-3.75;47.02
74376;HTU21D;62812;55.188;61.302;2022-12-10T13:18:21;-3.74;45.30
74376;HTU21D;62812;55.188;61.302;2022-12-10T13:20:51;-3.79;44.77
74376;HTU21D;62812;55.188;61.302;2022-12-10T13:23:49;-3.81;46.15
74376;HTU21D;62812;55.188;61.302;2022-12-10T13:26:23;-3.86;45.25
74376;HTU21D;62812;55.188;61.302;2022-12-10T13:28:51;-3.92;44.45
74376;HTU21D;62812;55.188;61.302;2022-12-10T13:34:20;-4.08;46.00
74376;HTU21D;62812;55.188;61.302;2022-12-10T13:37:14;-4.01;45.22
74376;HTU21D;62812;55.188;61.302;2022-12-10T13:39:53;-4.01;44.60
74376;HTU21D;62812;55.188;61.302;2022-12-10T13:42:31;-4.08;44.58
74376;HTU21D;62812;55.188;61.302;2022-12-10T13:45:28;-4.11;46.38
74376;HTU21D;62812;55.188;61.302;2022-12-10T13:48:15;-4.10;44.62
74376;HTU21D;62812;55.188;61.302;2022-12-10T13:50:45;-4.15;44.46
74376;HTU21D;62812;55.188;61.302;2022-12-10T13:53:19;-4.20;44.75
74376;HTU21D;62812;55.188;61.302;2022-12-10T13:55:55;-4.14;47.69
74376;HTU21D;62812;55.188;61.302;2022-12-10T13:58:43;-4.13;46.41
74376;HTU21D;62812;55.188;61.302;2022-12-10T14:01:15;-4.00;49.85
74376;HTU21D;62812;55.188;61.302;2022-12-10T14:03:51;-3.99;44.92
74376;HTU21D;62812;55.188;61.302;2022-12-10T14:06:22;-3.99;45.18
74376;HTU21D;62812;55.188;61.302;2022-12-10T14:09:01;-4.02;44.92
74376;HTU21D;62812;55.188;61.302;2022-12-10T14:11:31;-3.95;44.70
74376;HTU21D;62812;55.188;61.302;2022-12-10T14:14:00;-3.94;44.60
74376;HTU21D;62812;55.188;61.302;2022-12-10T14:16:30;-4.05;44.47
74376;HTU21D;62812;55.188;61.302;2022-12-10T14:18:59;-4.11;45.26
74376;HTU21D;62812;55.188;61.302;2022-12-10T14:21:27;-4.15;45.26
74376;HTU21D;62812;55.188;61.302;2022-12-10T14:23:57;-4.20;48.26
74376;HTU21D;62812;55.188;61.302;2022-12-10T14:26:27;-4.23;45.36
74376;HTU21D;62812;55.188;61.302;2022-12-10T14:28:58;-4.28;46.19
74376;HTU21D;62812;55.188;61.302;2022-12-10T14:31:28;-4.28;46.03
74376;HTU21D;62812;55.188;61.302;2022-12-10T14:34:00;-4.32;46.17
74376;HTU21D;62812;55.188;61.302;2022-12-10T14:36:30;-4.35;46.37
74376;HTU21D;62812;55.188;61.302;2022-12-10T14:38:58;-4.41;45.37
74376;HTU21D;62812;55.188;61.302;2022-12-10T14:41:26;-4.43;45.85
74376;HTU21D;62812;55.188;61.302;2022-12-10T14:43:55;-4.45;45.68
74376;HTU21D;62812;55.188;61.302;2022-12-10T14:46:25;-4.34;47.86
74376;HTU21D;62812;55.188;61.302;2022-12-10T14:48:55;-4.31;46.47
74376;HTU21D;62812;55.188;61.302;2022-12-10T14:51:26;-4.35;45.93
74376;HTU21D;62812;55.188;61.302;2022-12-10T14:53:57;-4.42;46.36
74376;HTU21D;62812;55.188;61.302;2022-12-10T14:56:26;-4.46;47.18
74376;HTU21D;62812;55.188;61.302;2022-12-10T14:59:02;-4.50;47.11
74376;HTU21D;62812;55.188;61.302;2022-12-10T15:01:32;-4.53;46.47
74376;HTU21D;62812;55.188;61.302;2022-12-10T15:04:03;-4.53;47.12
74376;HTU21D;62812;55.188;61.302;2022-12-10T15:06:34;-4.45;46.71
74376;HTU21D;62812;55.188;61.302;2022-12-10T15:09:02;-4.48;46.32
74376;HTU21D;62812;55.188;61.302;2022-12-10T15:11:29;-4.52;46.11
74376;HTU21D;62812;55.188;61.302;2022-12-10T15:13:59;-4.51;45.93
74376;HTU21D;62812;55.188;61.302;2022-12-10T15:16:27;-4.56;46.32
74376;HTU21D;62812;55.188;61.302;2022-12-10T15:18:55;-4.53;46.15
74376;HTU21D;62812;55.188;61.302;2022-12-10T15:21:24;-4.54;46.64
74376;HTU21D;62812;55.188;61.302;2022-12-10T15:24:07;-4.61;45.33
74376;HTU21D;62812;55.188;61.302;2022-12-10T15:26:35;-4.54;46.10
74376;HTU21D;62812;55.188;61.302;2022-12-10T15:29:32;-4.52;45.30